createdAt,value
2023-10-10T00:02:19.772Z,98186.91
2023-10-10T00:04:49.544Z,98185.31
2023-10-10T00:07:20.141Z,98180.91
2023-10-10T00:09:49.889Z,98191.84
2023-10-10T00:12:20.264Z,98192.41
2023-10-10T00:14:51.679Z,98188.75
2023-10-10T00:17:22.800Z,98183.16
2023-10-10T00:19:54.888Z,98183.72
2023-10-10T00:22:34.735Z,98181.44
2023-10-10T00:25:09.298Z,98177.81
2023-10-10T00:27:45.032Z,98176.19
2023-10-10T00:30:13.719Z,98171.31
2023-10-10T00:32:46.237Z,98178.38
2023-10-10T00:35:18.604Z,98167.84
2023-10-10T00:37:48.392Z,98162.88
2023-10-10T00:40:28.087Z,98167.06
2023-10-10T00:42:56.526Z,98167.97
2023-10-10T00:45:25.237Z,98169.59
2023-10-10T00:47:55.630Z,98158.75
2023-10-10T00:50:26.792Z,98163.78
2023-10-10T00:52:58.190Z,98163.41
2023-10-10T00:55:34.421Z,98169.66
2023-10-10T00:58:02.965Z,98165.06
2023-10-10T01:00:33.508Z,98166.06
2023-10-10T01:03:08.715Z,98168.00
2023-10-10T01:05:42.171Z,98172.22
2023-10-10T01:08:10.785Z,98169.31
2023-10-10T01:10:44.917Z,98168.97
2023-10-10T01:13:14.644Z,98171.91
2023-10-10T01:15:55.603Z,98175.22
2023-10-10T01:18:26.233Z,98171.03
2023-10-10T01:20:57.441Z,98169.47
2023-10-10T01:23:29.073Z,98171.34
2023-10-10T01:26:07.315Z,98171.94
2023-10-10T01:28:36.223Z,98170.69
2023-10-10T01:31:11.811Z,98179.69
2023-10-10T01:33:48.694Z,98170.53
2023-10-10T01:36:22.634Z,98177.47
2023-10-10T01:39:23.309Z,98176.66
2023-10-10T01:41:52.521Z,98176.09
2023-10-10T01:44:23.910Z,98176.88
2023-10-10T01:46:53.504Z,98166.22
2023-10-10T01:49:22.700Z,98163.44
2023-10-10T01:51:56.267Z,98171.72
2023-10-10T01:54:35.819Z,98170.97
2023-10-10T01:57:08.903Z,98166.91
2023-10-10T01:59:39.715Z,98164.28
2023-10-10T02:02:12.292Z,98168.91
2023-10-10T02:04:43.168Z,98162.13
2023-10-10T02:07:23.677Z,98164.88
2023-10-10T02:10:12.842Z,98160.69
2023-10-10T02:12:45.484Z,98158.19
2023-10-10T02:15:19.430Z,98164.78
2023-10-10T02:17:52.715Z,98167.00
2023-10-10T02:20:35.423Z,98167.59
2023-10-10T02:23:25.247Z,98174.88
2023-10-10T02:25:55.674Z,98169.91
2023-10-10T02:28:44.269Z,98168.50
2023-10-10T02:31:16.510Z,98167.53
2023-10-10T02:33:56.469Z,98163.53
2023-10-10T02:36:32.426Z,98163.84
2023-10-10T02:39:28.718Z,98170.09
2023-10-10T02:42:03.463Z,98170.47
2023-10-10T02:44:47.866Z,98172.56
2023-10-10T02:47:31.825Z,98174.13
2023-10-10T02:50:10.740Z,98177.50
2023-10-10T02:52:46.382Z,98180.00
2023-10-10T02:55:23.888Z,98177.25
2023-10-10T02:57:54.917Z,98173.78
2023-10-10T03:00:30.102Z,98174.88
2023-10-10T03:03:00.492Z,98183.94
2023-10-10T03:05:40.995Z,98178.66
2023-10-10T03:08:16.053Z,98179.91
2023-10-10T03:10:55.257Z,98179.78
2023-10-10T03:13:32.762Z,98175.72
2023-10-10T03:16:37.307Z,98183.56
2023-10-10T03:19:27.056Z,98183.69
2023-10-10T03:22:21.153Z,98190.72
2023-10-10T03:25:06.066Z,98179.84
2023-10-10T03:27:50.523Z,98188.84
2023-10-10T03:30:26.499Z,98192.06
2023-10-10T03:33:12.188Z,98195.78
2023-10-10T03:36:01.409Z,98185.69
2023-10-10T03:38:49.194Z,98186.84
2023-10-10T03:41:47.755Z,98191.81
2023-10-10T03:44:35.658Z,98188.63
2023-10-10T03:47:21.817Z,98193.47
2023-10-10T03:50:08.150Z,98197.19
2023-10-10T03:52:54.199Z,98192.81
2023-10-10T03:55:40.087Z,98192.19
2023-10-10T03:58:26.249Z,98196.84
2023-10-10T04:01:17.065Z,98192.72
2023-10-10T04:04:03.194Z,98192.38
2023-10-10T04:06:49.377Z,98196.53
2023-10-10T04:09:34.575Z,98206.31
2023-10-10T04:12:20.542Z,98202.75
2023-10-10T04:15:06.578Z,98196.81
2023-10-10T04:17:53.755Z,98203.91
2023-10-10T04:20:40.364Z,98200.56
2023-10-10T04:23:26.602Z,98200.69
2023-10-10T04:26:12.593Z,98205.03
2023-10-10T04:28:58.593Z,98201.97
2023-10-10T04:31:46.877Z,98203.41
2023-10-10T04:34:39.525Z,98192.03
2023-10-10T04:37:25.146Z,98189.34
2023-10-10T04:40:13.806Z,98189.63
2023-10-10T04:42:59.855Z,98196.22
2023-10-10T04:45:45.980Z,98195.25
2023-10-10T04:48:32.119Z,98206.44
2023-10-10T04:51:19.294Z,98203.28
2023-10-10T04:54:05.213Z,98201.34
2023-10-10T04:56:51.201Z,98202.50
2023-10-10T04:59:37.151Z,98202.13
2023-10-10T05:02:23.229Z,98207.13
2023-10-10T05:05:09.203Z,98203.41
2023-10-10T05:07:58.404Z,98206.47
2023-10-10T05:10:44.224Z,98202.47
2023-10-10T05:13:41.614Z,98192.69
2023-10-10T05:16:27.806Z,98206.31
2023-10-10T05:19:13.716Z,98209.38
2023-10-10T05:21:59.509Z,98216.25
2023-10-10T05:24:29.919Z,98218.34
2023-10-10T05:26:58.378Z,98218.19
2023-10-10T05:29:26.642Z,98218.81
2023-10-10T05:32:00.595Z,98216.09
2023-10-10T05:34:31.119Z,98226.69
2023-10-10T05:36:59.310Z,98219.16
2023-10-10T05:39:33.546Z,98218.66
2023-10-10T05:42:02.337Z,98215.78
2023-10-10T05:44:30.605Z,98218.84
2023-10-10T05:46:58.803Z,98225.22
2023-10-10T05:49:31.953Z,98219.16
2023-10-10T05:52:09.983Z,98223.31
2023-10-10T05:54:39.827Z,98232.59
2023-10-10T05:57:11.858Z,98236.31
2023-10-10T05:59:40.096Z,98228.31
2023-10-10T06:02:12.147Z,98238.53
2023-10-10T06:04:45.012Z,98245.28
2023-10-10T06:07:18.672Z,98243.34
2023-10-10T06:09:52.673Z,98245.09
2023-10-10T06:12:20.931Z,98239.47
2023-10-10T06:14:49.127Z,98246.34
2023-10-10T06:17:17.444Z,98242.03
2023-10-10T06:19:47.946Z,98244.59
2023-10-10T06:22:16.936Z,98245.84
2023-10-10T06:24:47.021Z,98248.75
2023-10-10T06:27:16.568Z,98247.16
2023-10-10T06:29:47.643Z,98245.38
2023-10-10T06:32:17.330Z,98244.72
2023-10-10T06:34:50.916Z,98252.28
2023-10-10T06:37:19.424Z,98252.47
2023-10-10T06:39:56.114Z,98254.69
2023-10-10T06:42:29.411Z,98252.63
2023-10-10T06:45:08.415Z,98256.66
2023-10-10T06:47:40.646Z,98258.69
2023-10-10T06:50:12.616Z,98250.97
2023-10-10T06:52:45.070Z,98264.31
2023-10-10T06:55:13.817Z,98255.91
2023-10-10T06:57:46.984Z,98263.22
2023-10-10T07:00:28.518Z,98257.34
2023-10-10T07:02:57.845Z,98251.00
2023-10-10T07:05:29.429Z,98254.66
2023-10-10T07:08:00.790Z,98252.56
2023-10-10T07:10:36.129Z,98245.63
2023-10-10T07:13:12.108Z,98248.41
2023-10-10T07:15:41.383Z,98246.47
2023-10-10T07:18:15.361Z,98248.31
2023-10-10T07:21:04.380Z,98258.06
2023-10-10T07:23:41.152Z,98258.16
2023-10-10T07:26:20.299Z,98257.22
2023-10-10T07:28:54.308Z,98263.34
2023-10-10T07:31:25.613Z,98265.03
2023-10-10T07:34:04.828Z,98263.91
2023-10-10T07:36:33.518Z,98269.94
2023-10-10T07:39:31.092Z,98265.22
2023-10-10T07:41:59.451Z,98280.53
2023-10-10T07:44:31.329Z,98278.22
2023-10-10T07:47:17.381Z,98269.91
2023-10-10T07:49:52.221Z,98276.25
2023-10-10T07:52:22.350Z,98279.09
2023-10-10T07:55:03.448Z,98280.69
2023-10-10T07:57:52.086Z,98277.94
2023-10-10T08:00:28.104Z,98278.41
2023-10-10T08:02:56.554Z,98281.41
2023-10-10T08:05:26.617Z,98287.19
2023-10-10T08:07:54.913Z,98278.25
2023-10-10T08:10:32.939Z,98276.97
2023-10-10T08:13:02.467Z,98275.75
2023-10-10T08:15:32.118Z,98276.00
2023-10-10T08:18:01.567Z,98265.53
2023-10-10T08:20:36.025Z,98275.09
2023-10-10T08:23:07.182Z,98272.13
2023-10-10T08:25:39.128Z,98268.75
2023-10-10T08:28:08.887Z,98272.16
2023-10-10T08:30:38.929Z,98271.03
2023-10-10T08:33:07.284Z,98263.84
2023-10-10T08:35:40.292Z,98262.38
2023-10-10T08:38:08.926Z,98267.31
2023-10-10T08:40:42.021Z,98269.47
2023-10-10T08:43:11.099Z,98256.50
2023-10-10T08:45:50.983Z,98264.91
2023-10-10T08:48:27.333Z,98270.41
2023-10-10T08:50:56.345Z,98267.59
2023-10-10T08:53:26.111Z,98263.47
2023-10-10T08:55:58.381Z,98264.53
2023-10-10T08:58:26.662Z,98258.75
2023-10-10T09:00:57.791Z,98264.84
2023-10-10T09:03:27.700Z,98260.69
2023-10-10T09:05:56.827Z,98259.81
2023-10-10T09:08:29.083Z,98263.53
2023-10-10T09:11:00.730Z,98258.16
2023-10-10T09:13:33.006Z,98267.13
2023-10-10T09:16:08.741Z,98261.75
2023-10-10T09:18:37.504Z,98267.91
2023-10-10T09:21:19.805Z,98274.84
2023-10-10T09:24:08.992Z,98276.97
2023-10-10T09:26:38.516Z,98263.66
2023-10-10T09:29:17.487Z,98271.75
2023-10-10T09:31:49.632Z,98263.16
2023-10-10T09:34:24.269Z,98264.50
2023-10-10T09:36:58.851Z,98259.16
2023-10-10T09:39:37.674Z,98245.72
2023-10-10T09:42:28.966Z,98247.78
2023-10-10T09:45:15.388Z,98246.41
2023-10-10T09:47:57.155Z,98244.41
2023-10-10T09:50:46.498Z,98248.13
2023-10-10T09:53:22.353Z,98242.03
2023-10-10T09:55:55.374Z,98249.03
2023-10-10T09:58:29.483Z,98237.38
2023-10-10T10:01:15.550Z,98242.34
2023-10-10T10:04:01.053Z,98240.09
2023-10-10T10:07:07.513Z,98242.22
2023-10-10T10:10:19.574Z,98239.56
2023-10-10T10:13:27.582Z,98252.06
2023-10-10T10:16:16.854Z,98255.56
2023-10-10T10:18:48.321Z,98251.72
2023-10-10T10:21:32.284Z,98245.59
2023-10-10T10:24:15.209Z,98247.63
2023-10-10T10:26:45.345Z,98242.13
2023-10-10T10:29:17.801Z,98245.59
2023-10-10T10:31:53.873Z,98242.34
2023-10-10T10:34:33.727Z,98242.94
2023-10-10T10:37:14.155Z,98246.16
2023-10-10T10:40:08.702Z,98243.47
2023-10-10T10:42:38.514Z,98235.97
2023-10-10T10:45:34.927Z,98234.81
2023-10-10T10:48:09.775Z,98232.88
2023-10-10T10:50:46.783Z,98234.47
2023-10-10T10:53:33.480Z,98227.31
2023-10-10T10:56:21.671Z,98226.78
2023-10-10T10:59:05.832Z,98224.31
2023-10-10T11:01:37.462Z,98217.19
2023-10-10T11:04:06.822Z,98212.84
2023-10-10T11:06:35.301Z,98214.41
2023-10-10T11:09:24.232Z,98217.97
2023-10-10T11:11:58.939Z,98210.88
2023-10-10T11:14:30.220Z,98207.91
2023-10-10T11:16:59.061Z,98198.81
2023-10-10T11:19:42.751Z,98193.13
2023-10-10T11:22:18.267Z,98190.72
2023-10-10T11:24:49.701Z,98189.34
2023-10-10T11:27:23.153Z,98190.72
2023-10-10T11:29:53.844Z,98187.31
2023-10-10T11:32:30.510Z,98185.47
2023-10-10T11:35:18.822Z,98175.97
2023-10-10T11:37:49.216Z,98179.75
2023-10-10T11:40:33.229Z,98163.41
2023-10-10T11:43:05.616Z,98171.97
2023-10-10T11:45:42.380Z,98163.47
2023-10-10T11:48:17.001Z,98163.84
2023-10-10T11:50:48.290Z,98156.47
2023-10-10T11:53:21.233Z,98161.31
2023-10-10T11:55:53.236Z,98160.28
2023-10-10T11:58:21.769Z,98153.53
2023-10-10T12:01:00.944Z,98159.31
2023-10-10T12:03:43.649Z,98156.38
2023-10-10T12:06:18.003Z,98157.97
2023-10-10T12:08:49.399Z,98161.28
2023-10-10T12:11:21.534Z,98154.25
2023-10-10T12:13:51.550Z,98150.56
2023-10-10T12:16:25.052Z,98152.75
2023-10-10T12:18:55.571Z,98146.69
2023-10-10T12:21:25.972Z,98133.34
2023-10-10T12:24:02.057Z,98138.22
2023-10-10T12:26:32.727Z,98126.69
2023-10-10T12:29:01.186Z,98125.09
2023-10-10T12:31:34.668Z,98127.88
2023-10-10T12:34:03.757Z,98127.69
2023-10-10T12:36:33.858Z,98124.72
2023-10-10T12:39:05.957Z,98121.22
2023-10-10T12:41:47.416Z,98125.31
2023-10-10T12:44:16.298Z,98125.38
2023-10-10T12:46:47.553Z,98122.63
2023-10-10T12:49:18.364Z,98123.31
2023-10-10T12:51:47.138Z,98128.16
2023-10-10T12:54:18.852Z,98125.25
2023-10-10T12:56:56.065Z,98120.41
2023-10-10T12:59:31.949Z,98123.16
2023-10-10T13:02:04.902Z,98112.38
2023-10-10T13:04:34.046Z,98115.09
2023-10-10T13:07:05.449Z,98120.06
2023-10-10T13:09:43.573Z,98111.75
2023-10-10T13:12:19.640Z,98108.44
2023-10-10T13:14:52.003Z,98113.84
2023-10-10T13:17:33.208Z,98107.94
2023-10-10T13:20:01.644Z,98103.22
2023-10-10T13:22:30.584Z,98110.88
2023-10-10T13:24:59.577Z,98101.16
2023-10-10T13:27:29.257Z,98111.28
2023-10-10T13:29:57.675Z,98105.44
2023-10-10T13:32:26.231Z,98098.44
2023-10-10T13:34:54.643Z,98112.56
2023-10-10T13:37:23.572Z,98099.53
2023-10-10T13:39:55.755Z,98100.06
2023-10-10T13:42:24.312Z,98098.69
2023-10-10T13:45:02.364Z,98093.63
2023-10-10T13:47:31.622Z,98095.47
2023-10-10T13:50:13.963Z,98097.34
2023-10-10T13:52:42.245Z,98089.09
2023-10-10T13:55:11.275Z,98093.16
2023-10-10T13:57:39.614Z,98093.56
2023-10-10T14:00:21.372Z,98094.41
2023-10-10T14:02:49.838Z,98090.75
2023-10-10T14:05:20.689Z,98086.75
2023-10-10T14:07:48.995Z,98088.06
2023-10-10T14:10:21.885Z,98090.97
2023-10-10T14:12:51.933Z,98086.25
2023-10-10T14:15:24.932Z,98090.06
2023-10-10T14:17:56.538Z,98080.72
2023-10-10T14:20:25.868Z,98083.53
2023-10-10T14:22:56.426Z,98088.66
2023-10-10T14:25:24.853Z,98090.63
2023-10-10T14:27:53.087Z,98092.72
2023-10-10T14:30:24.498Z,98086.84
2023-10-10T14:32:56.165Z,98081.81
2023-10-10T14:35:25.044Z,98083.28
2023-10-10T14:38:01.601Z,98082.16
2023-10-10T14:40:32.147Z,98093.47
2023-10-10T14:43:07.023Z,98087.06
2023-10-10T14:45:37.204Z,98089.09
2023-10-10T14:48:08.285Z,98094.31
2023-10-10T14:50:41.384Z,98089.94
2023-10-10T14:53:10.902Z,98091.91
2023-10-10T14:55:45.380Z,98087.56
2023-10-10T14:58:17.860Z,98087.13
2023-10-10T15:00:48.173Z,98085.19
2023-10-10T15:03:17.414Z,98086.72
2023-10-10T15:05:51.739Z,98080.44
2023-10-10T15:08:21.887Z,98084.50
2023-10-10T15:10:52.509Z,98072.69
2023-10-10T15:13:22.298Z,98084.56
2023-10-10T15:15:51.914Z,98085.75
2023-10-10T15:18:24.850Z,98071.50
2023-10-10T15:20:56.331Z,98079.84
2023-10-10T15:23:26.136Z,98076.66
2023-10-10T15:25:54.651Z,98079.03
2023-10-10T15:28:25.830Z,98082.59
2023-10-10T15:30:55.394Z,98082.59
2023-10-10T15:33:26.114Z,98085.00
2023-10-10T15:35:54.514Z,98087.38
2023-10-10T15:38:24.309Z,98089.78
2023-10-10T15:40:53.589Z,98094.50
2023-10-10T15:43:32.428Z,98092.88
2023-10-10T15:46:07.984Z,98102.38
2023-10-10T15:48:43.352Z,98096.03
2023-10-10T15:51:15.724Z,98095.63
2023-10-10T15:53:44.567Z,98094.03
2023-10-10T15:56:14.391Z,98104.25
2023-10-10T15:58:45.501Z,98100.22
2023-10-10T16:01:17.803Z,98097.34
2023-10-10T16:03:48.800Z,98099.66
2023-10-10T16:06:19.581Z,98101.59
2023-10-10T16:08:50.646Z,98098.75
2023-10-10T16:11:19.528Z,98097.47
2023-10-10T16:13:49.811Z,98100.91
2023-10-10T16:16:20.519Z,98101.53
2023-10-10T16:18:49.036Z,98099.50
2023-10-10T16:21:17.567Z,98099.03
2023-10-10T16:23:47.006Z,98103.28
2023-10-10T16:26:17.885Z,98101.63
2023-10-10T16:28:50.390Z,98104.31
2023-10-10T16:31:21.433Z,98109.13
2023-10-10T16:33:50.743Z,98108.19
2023-10-10T16:36:19.381Z,98110.72
2023-10-10T16:38:50.908Z,98109.81
2023-10-10T16:41:20.412Z,98114.00
2023-10-10T16:44:00.425Z,98125.16
2023-10-10T16:46:32.342Z,98122.84
2023-10-10T16:49:01.124Z,98119.13
2023-10-10T16:51:32.830Z,98117.28
2023-10-10T16:54:01.692Z,98122.94
2023-10-10T16:56:30.674Z,98129.69
2023-10-10T16:58:58.881Z,98130.91
2023-10-10T17:01:28.336Z,98130.97
2023-10-10T17:04:02.822Z,98130.63
2023-10-10T17:06:36.564Z,98130.66
2023-10-10T17:09:05.348Z,98133.94
2023-10-10T17:11:34.227Z,98126.84
2023-10-10T17:14:04.543Z,98133.75
2023-10-10T17:16:35.095Z,98128.63
2023-10-10T17:19:22.335Z,98130.66
2023-10-10T17:21:50.554Z,98135.25
2023-10-10T17:24:20.182Z,98138.09
2023-10-10T17:26:48.671Z,98139.03
2023-10-10T17:29:17.695Z,98137.91
2023-10-10T17:31:46.511Z,98142.19
2023-10-10T17:34:18.814Z,98141.22
2023-10-10T17:36:48.661Z,98149.03
2023-10-10T17:39:17.566Z,98149.44
2023-10-10T17:41:49.755Z,98155.81
2023-10-10T17:44:19.270Z,98154.69
2023-10-10T17:46:48.833Z,98157.88
2023-10-10T17:49:20.216Z,98156.38
2023-10-10T17:51:49.383Z,98155.41
2023-10-10T17:54:17.976Z,98163.53
2023-10-10T17:56:46.780Z,98156.66
2023-10-10T17:59:17.880Z,98159.81
2023-10-10T18:01:46.409Z,98154.31
2023-10-10T18:04:16.155Z,98159.63
2023-10-10T18:06:46.481Z,98159.25
2023-10-10T18:09:17.828Z,98167.88
2023-10-10T18:11:49.700Z,98167.94
2023-10-10T18:14:19.397Z,98162.34
2023-10-10T18:16:47.785Z,98159.50
2023-10-10T18:19:17.508Z,98163.88
2023-10-10T18:21:47.825Z,98166.81
2023-10-10T18:24:16.012Z,98165.47
2023-10-10T18:26:44.297Z,98158.38
2023-10-10T18:29:13.127Z,98158.38
2023-10-10T18:31:41.411Z,98161.50
2023-10-10T18:34:14.297Z,98163.25
2023-10-10T18:36:42.660Z,98164.00
2023-10-10T18:39:14.936Z,98163.56
2023-10-10T18:41:44.198Z,98162.72
2023-10-10T18:44:16.457Z,98162.34
2023-10-10T18:46:45.196Z,98168.75
2023-10-10T18:49:14.417Z,98160.09
2023-10-10T18:51:44.066Z,98166.72
2023-10-10T18:54:14.087Z,98165.78
2023-10-10T18:56:42.373Z,98170.00
2023-10-10T18:59:12.464Z,98167.63
2023-10-10T19:01:45.071Z,98158.59
2023-10-10T19:04:14.979Z,98161.97
2023-10-10T19:06:43.356Z,98167.94
2023-10-10T19:09:13.329Z,98161.06
2023-10-10T19:11:41.734Z,98159.13
2023-10-10T19:14:11.592Z,98165.72
2023-10-10T19:16:39.959Z,98162.25
2023-10-10T19:19:08.351Z,98167.75
2023-10-10T19:21:36.915Z,98167.22
2023-10-10T19:24:05.647Z,98164.38
2023-10-10T19:26:36.263Z,98167.41
2023-10-10T19:29:05.227Z,98164.19
2023-10-10T19:31:40.709Z,98163.28
2023-10-10T19:34:11.379Z,98168.19
2023-10-10T19:36:40.185Z,98170.44
2023-10-10T19:39:10.881Z,98171.09
2023-10-10T19:41:41.216Z,98171.00
2023-10-10T19:44:10.085Z,98169.03
2023-10-10T19:46:40.844Z,98166.63
2023-10-10T19:49:09.237Z,98171.16
2023-10-10T19:51:42.137Z,98169.22
2023-10-10T19:54:14.335Z,98165.81
2023-10-10T19:56:46.043Z,98169.00
2023-10-10T19:59:16.456Z,98172.81
2023-10-10T20:01:44.986Z,98170.22
2023-10-10T20:04:15.448Z,98167.72
2023-10-10T20:06:47.820Z,98166.16
2023-10-10T20:09:21.273Z,98168.88
2023-10-10T20:11:51.005Z,98164.06
2023-10-10T20:14:19.933Z,98162.31
2023-10-10T20:16:50.810Z,98158.00
2023-10-10T20:19:19.591Z,98157.09
2023-10-10T20:21:48.253Z,98155.84
2023-10-10T20:24:16.372Z,98153.66
2023-10-10T20:26:44.578Z,98149.06
2023-10-10T20:29:15.434Z,98156.34
2023-10-10T20:31:44.808Z,98153.00
2023-10-10T20:34:14.142Z,98157.91
2023-10-10T20:36:42.318Z,98156.31
2023-10-10T20:39:19.327Z,98152.41
2023-10-10T20:41:49.384Z,98155.59
2023-10-10T20:44:19.188Z,98154.19
2023-10-10T20:46:49.110Z,98163.31
2023-10-10T20:49:17.921Z,98159.78
2023-10-10T20:51:46.592Z,98156.94
2023-10-10T20:54:17.094Z,98156.38
2023-10-10T20:56:45.581Z,98156.22
2023-10-10T20:59:13.880Z,98153.97
2023-10-10T21:01:43.453Z,98154.31
2023-10-10T21:04:11.940Z,98156.25
2023-10-10T21:06:40.143Z,98154.09
2023-10-10T21:09:10.865Z,98154.44
2023-10-10T21:11:39.350Z,98160.28
2023-10-10T21:14:11.483Z,98157.00
2023-10-10T21:16:41.334Z,98160.34
2023-10-10T21:19:12.431Z,98150.50
2023-10-10T21:21:41.535Z,98154.84
2023-10-10T21:24:10.373Z,98152.78
2023-10-10T21:26:39.701Z,98144.66
2023-10-10T21:29:08.453Z,98147.41
2023-10-10T21:31:37.432Z,98137.44
2023-10-10T21:34:05.981Z,98152.22
2023-10-10T21:36:35.622Z,98140.66
2023-10-10T21:39:06.056Z,98150.50
2023-10-10T21:41:34.378Z,98153.91
2023-10-10T21:44:02.755Z,98159.41
2023-10-10T21:46:30.981Z,98163.75
2023-10-10T21:48:59.200Z,98156.66
2023-10-10T21:51:27.697Z,98164.53
2023-10-10T21:53:58.346Z,98166.94
2023-10-10T21:56:26.627Z,98166.72
2023-10-10T21:58:55.775Z,98163.88
2023-10-10T22:01:25.618Z,98163.66
2023-10-10T22:03:53.977Z,98166.06
2023-10-10T22:06:22.234Z,98161.63
2023-10-10T22:08:50.485Z,98162.13
2023-10-10T22:11:20.685Z,98160.38
2023-10-10T22:13:50.605Z,98160.66
2023-10-10T22:16:20.433Z,98159.03
2023-10-10T22:18:48.958Z,98150.03
2023-10-10T22:21:20.743Z,98153.69
2023-10-10T22:23:49.636Z,98156.75
2023-10-10T22:26:21.536Z,98155.03
2023-10-10T22:28:50.783Z,98156.19
2023-10-10T22:31:19.212Z,98144.31
2023-10-10T22:33:47.497Z,98146.97
2023-10-10T22:36:16.698Z,98148.09
2023-10-10T22:38:47.303Z,98142.50
2023-10-10T22:41:16.727Z,98143.78
2023-10-10T22:43:46.557Z,98148.91
2023-10-10T22:46:15.057Z,98145.69
2023-10-10T22:48:44.323Z,98145.94
2023-10-10T22:51:13.910Z,98131.09
2023-10-10T22:53:43.326Z,98140.44
2023-10-10T22:56:12.572Z,98138.41
2023-10-10T22:58:43.331Z,98140.00
2023-10-10T23:01:16.694Z,98142.63
2023-10-10T23:03:46.452Z,98139.66
2023-10-10T23:06:15.114Z,98143.53
2023-10-10T23:08:43.932Z,98147.19
2023-10-10T23:11:14.150Z,98146.50
2023-10-10T23:13:42.784Z,98142.97
2023-10-10T23:16:18.254Z,98141.34
2023-10-10T23:18:47.301Z,98131.78
2023-10-10T23:21:16.249Z,98140.69
2023-10-10T23:23:44.862Z,98139.91
2023-10-10T23:26:13.625Z,98137.97
2023-10-10T23:28:41.850Z,98137.03
2023-10-10T23:31:10.125Z,98134.63
2023-10-10T23:33:41.445Z,98134.53
2023-10-10T23:36:09.849Z,98137.94
2023-10-10T23:38:41.382Z,98134.66
2023-10-10T23:41:15.154Z,98134.41
2023-10-10T23:43:47.396Z,98138.97
2023-10-10T23:46:22.810Z,98134.63
2023-10-10T23:48:55.774Z,98133.59
2023-10-10T23:51:24.019Z,98138.81
2023-10-10T23:53:52.292Z,98136.44
2023-10-10T23:56:20.513Z,98137.91
2023-10-10T23:58:52.691Z,98138.25
